Time;durP1;ratioP1;P1;durP2;ratioP2;P2;SDS_P1;SDS_P2;PMS_P1;PMS_P2;Temp;Humidity;BMP_temperature;BMP_pressure;BME280_temperature;BME280_humidity;BME280_pressure;Samples;Min_cycle;Max_cycle;Signal;HPM_P1;HPM_P2
2022/12/26 00:02:08;;;;;;;;;;;3.00;99.90;;;;;;5110123;28;19919;-77
2022/12/26 00:04:34;;;;;;;;;;;3.00;99.90;;;;;;5093934;28;19964;-77
2022/12/26 00:06:59;;;;;;;;;;;3.00;99.90;;;;;;5111602;28;19927;-78
2022/12/26 00:09:25;;;;;;;;;;;3.00;99.90;;;;;;5111538;28;20280;-77
2022/12/26 00:11:50;;;;;;;;;;;3.00;99.90;;;;;;5081385;28;19958;-77
2022/12/26 00:14:16;;;;;;;;;;;2.90;99.90;;;;;;5091663;28;19926;-76
2022/12/26 00:16:43;;;;;;;;;;;3.00;99.90;;;;;;5092292;28;19996;-78
2022/12/26 00:19:08;;;;;;;;;;;3.00;99.90;;;;;;5091611;28;20426;-78
2022/12/26 00:21:34;;;;;;;;;;;2.90;99.90;;;;;;5092180;28;19916;-78
2022/12/26 00:24:00;;;;;;;;;;;2.90;99.90;;;;;;5092022;28;20233;-78
2022/12/26 00:26:27;;;;;;;;;;;2.90;99.90;;;;;;5090880;28;20392;-78
2022/12/26 00:28:53;;;;;;;;;;;2.90;99.90;;;;;;5091719;28;19912;-80
2022/12/26 00:31:20;;;;;;;;;;;2.90;99.90;;;;;;5091150;28;19957;-77
2022/12/26 00:33:46;;;;;;;;;;;2.90;99.90;;;;;;5091548;28;19908;-78
2022/12/26 00:36:13;;;;;;;;;;;2.80;99.90;;;;;;5090858;28;19912;-78
2022/12/26 00:38:39;;;;;;;;;;;2.90;99.90;;;;;;5091717;28;19953;-78
2022/12/26 00:41:05;;;;;;;;;;;2.90;99.90;;;;;;5091452;28;19916;-83
2022/12/26 00:43:31;;;;;;;;;;;2.90;99.90;;;;;;5091116;28;20366;-77
2022/12/26 00:45:56;;;;;;;;;;;2.90;99.90;;;;;;5091176;28;19912;-77
2022/12/26 00:48:22;;;;;;;;;;;2.90;99.90;;;;;;5096456;28;19920;-79
2022/12/26 00:50:48;;;;;;;;;;;2.90;99.90;;;;;;5092226;28;19908;-76
2022/12/26 00:53:13;;;;;;;;;;;2.90;99.90;;;;;;5091883;28;19967;-77
2022/12/26 00:55:39;;;;;;;;;;;2.90;99.90;;;;;;5091613;28;20219;-77
2022/12/26 00:58:04;;;;;;;;;;;2.90;99.90;;;;;;5091168;28;19908;-82
2022/12/26 01:00:30;;;;;;;;;;;2.80;99.90;;;;;;5090971;28;19915;-77
2022/12/26 01:02:56;;;;;;;;;;;2.80;99.90;;;;;;5091319;28;19912;-77
2022/12/26 01:05:22;;;;;;;;;;;2.80;99.90;;;;;;5091183;28;20288;-77
2022/12/26 01:07:47;;;;;;;;;;;2.80;99.90;;;;;;5090671;28;19939;-78
2022/12/26 01:10:13;;;;;;;;;;;2.70;99.90;;;;;;5090842;28;19950;-78
2022/12/26 01:12:38;;;;;;;;;;;2.70;99.90;;;;;;5101081;28;19919;-77
2022/12/26 01:15:04;;;;;;;;;;;2.80;99.90;;;;;;5111100;28;19912;-77
2022/12/26 01:17:30;;;;;;;;;;;2.90;99.90;;;;;;5092577;28;19908;-77
2022/12/26 01:19:56;;;;;;;;;;;2.90;99.90;;;;;;5093388;28;19930;-77
2022/12/26 01:22:22;;;;;;;;;;;3.00;99.90;;;;;;5111171;28;19962;-78
2022/12/26 01:24:48;;;;;;;;;;;3.00;99.90;;;;;;5111730;28;19912;-78
2022/12/26 01:27:13;;;;;;;;;;;3.00;99.90;;;;;;5110986;28;19922;-78
2022/12/26 01:29:39;;;;;;;;;;;3.00;99.90;;;;;;5111491;28;19918;-78
2022/12/26 01:32:05;;;;;;;;;;;3.00;99.90;;;;;;5111497;28;20309;-78
2022/12/26 01:34:31;;;;;;;;;;;3.00;99.90;;;;;;5110945;28;19907;-78
2022/12/26 01:36:56;;;;;;;;;;;3.10;99.90;;;;;;5110785;28;20272;-78
2022/12/26 01:39:22;;;;;;;;;;;3.00;99.90;;;;;;5110620;28;19908;-78
2022/12/26 01:41:48;;;;;;;;;;;3.10;99.90;;;;;;5111450;28;19915;-78
2022/12/26 01:44:32;;;;;;;;;;;3.10;99.90;;;;;;5092632;28;19999;-78
2022/12/26 01:46:57;;;;;;;;;;;3.10;99.90;;;;;;5111031;28;20288;-77
2022/12/26 01:49:29;;;;;;;;;;;3.20;99.90;;;;;;5110480;28;19916;-78
2022/12/26 01:51:57;;;;;;;;;;;3.20;99.90;;;;;;5110963;28;19911;-78
2022/12/26 01:54:24;;;;;;;;;;;3.20;99.90;;;;;;5092194;28;19908;-78
2022/12/26 01:56:50;;;;;;;;;;;3.20;99.90;;;;;;5111140;28;20357;-78
2022/12/26 01:59:21;;;;;;;;;;;3.30;99.90;;;;;;5110660;28;20297;-78
2022/12/26 02:01:48;;;;;;;;;;;3.30;99.90;;;;;;5111159;28;19947;-77
2022/12/26 02:07:02;;;;;;;;;;;3.40;99.90;;;;;;5110341;28;19926;-78
2022/12/26 02:09:28;;;;;;;;;;;3.40;99.90;;;;;;5110736;28;19908;-78
2022/12/26 02:12:05;;;;;;;;;;;3.50;99.90;;;;;;5111053;28;20006;-78
2022/12/26 02:14:32;;;;;;;;;;;3.40;99.90;;;;;;5112708;28;20011;-78
2022/12/26 02:16:57;;;;;;;;;;;3.40;99.90;;;;;;5114547;28;19908;-78
2022/12/26 02:19:38;;;;;;;;;;;3.40;99.90;;;;;;5113897;28;20391;-78
2022/12/26 02:22:16;;;;;;;;;;;3.40;99.90;;;;;;5114481;28;19951;-78
2022/12/26 02:25:13;;;;;;;;;;;3.40;99.90;;;;;;5113926;28;19921;-77
2022/12/26 02:27:57;;;;;;;;;;;3.40;99.90;;;;;;5114370;28;19911;-78
2022/12/26 02:30:23;;;;;;;;;;;3.40;99.90;;;;;;5114134;28;19912;-79
2022/12/26 02:32:54;;;;;;;;;;;3.40;99.90;;;;;;5114370;28;19915;-78
2022/12/26 02:35:23;;;;;;;;;;;3.40;99.90;;;;;;5114070;28;19908;-78
2022/12/26 02:38:07;;;;;;;;;;;3.40;99.90;;;;;;5114777;28;19915;-78
2022/12/26 02:40:51;;;;;;;;;;;3.30;99.90;;;;;;5114245;28;19910;-78
2022/12/26 02:43:19;;;;;;;;;;;3.30;99.90;;;;;;5113878;28;20024;-78
2022/12/26 02:48:56;;;;;;;;;;;3.20;99.90;;;;;;5114172;28;19972;-78
2022/12/26 03:14:04;;;;;;;;;;;2.90;99.90;;;;;;5094462;28;19931;-77
2022/12/26 03:19:14;;;;;;;;;;;2.90;99.90;;;;;;5094460;28;19923;-79
2022/12/26 03:21:41;;;;;;;;;;;2.80;99.90;;;;;;5093690;28;19916;-78
2022/12/26 03:24:08;;;;;;;;;;;2.70;99.90;;;;;;5093771;28;20341;-78
2022/12/26 03:26:39;;;;;;;;;;;2.70;99.90;;;;;;5093578;28;19920;-78
2022/12/26 03:32:15;;;;;;;;;;;2.70;99.90;;;;;;5093192;28;19915;-81
2022/12/26 03:34:41;;;;;;;;;;;2.70;99.90;;;;;;5074918;28;19908;-77
2022/12/26 03:37:13;;;;;;;;;;;2.70;99.90;;;;;;5093083;28;19914;-77
2022/12/26 04:19:25;;;;;;;;;;;2.70;99.90;;;;;;5117702;28;19976;-78
2022/12/26 04:44:33;;;;;;;;;;;2.60;99.90;;;;;;5113678;28;19915;-77
2022/12/26 04:46:59;;;;;;;;;;;2.60;99.90;;;;;;5113137;28;19916;-77
2022/12/26 04:52:10;;;;;;;;;;;2.60;99.90;;;;;;5114854;28;19975;-78
2022/12/26 04:54:36;;;;;;;;;;;2.60;99.90;;;;;;5113643;28;19918;-78
2022/12/26 04:57:01;;;;;;;;;;;2.60;99.90;;;;;;5113798;28;19999;-77
2022/12/26 04:59:27;;;;;;;;;;;2.70;99.90;;;;;;5113296;28;19933;-78
2022/12/26 05:10:07;;;;;;;;;;;2.70;99.90;;;;;;5112525;28;20405;-78
2022/12/26 05:12:33;;;;;;;;;;;2.70;99.90;;;;;;5111729;28;19915;-78
2022/12/26 05:14:59;;;;;;;;;;;2.70;99.90;;;;;;5112409;28;19915;-77
2022/12/26 05:28:42;;;;;;;;;;;2.70;99.90;;;;;;5091328;28;20376;-83
2022/12/26 05:31:15;;;;;;;;;;;2.70;99.90;;;;;;5090913;28;19908;-77
2022/12/26 05:36:34;;;;;;;;;;;2.70;99.90;;;;;;5101098;28;19914;-83
2022/12/26 05:39:00;;;;;;;;;;;2.60;99.90;;;;;;5098191;28;19912;-77
2022/12/26 05:41:26;;;;;;;;;;;2.60;99.90;;;;;;5091526;28;19908;-83
2022/12/26 05:43:52;;;;;;;;;;;2.60;99.90;;;;;;5091063;28;19915;-78
2022/12/26 05:46:17;;;;;;;;;;;2.60;99.90;;;;;;5091446;28;19920;-77
2022/12/26 05:48:43;;;;;;;;;;;2.60;99.90;;;;;;5091500;28;19920;-77
2022/12/26 05:51:09;;;;;;;;;;;2.60;99.90;;;;;;5076909;28;19915;-77
2022/12/26 05:53:34;;;;;;;;;;;2.60;99.90;;;;;;5094647;28;20293;-77
2022/12/26 05:56:08;;;;;;;;;;;2.60;99.90;;;;;;5076581;28;19963;-78
2022/12/26 05:58:34;;;;;;;;;;;2.60;99.90;;;;;;5094302;28;20435;-78
2022/12/26 06:01:07;;;;;;;;;;;2.60;99.90;;;;;;5094676;28;19946;-77
2022/12/26 06:03:34;;;;;;;;;;;2.60;99.90;;;;;;5094852;28;20007;-77
2022/12/26 06:05:59;;;;;;;;;;;2.70;99.90;;;;;;5094310;28;19924;-78
2022/12/26 06:08:25;;;;;;;;;;;2.70;99.90;;;;;;5094290;28;19919;-82
2022/12/26 06:10:51;;;;;;;;;;;2.70;99.90;;;;;;5094234;28;19908;-78
2022/12/26 06:13:16;;;;;;;;;;;2.70;99.90;;;;;;5094737;28;19928;-77
2022/12/26 06:15:42;;;;;;;;;;;2.70;99.90;;;;;;5094307;28;19909;-78
2022/12/26 06:18:07;;;;;;;;;;;2.70;99.90;;;;;;5094627;28;20387;-77
2022/12/26 06:20:33;;;;;;;;;;;2.70;99.90;;;;;;5093300;28;20265;-78
2022/12/26 06:22:58;;;;;;;;;;;2.70;99.90;;;;;;5096882;28;19912;-77
2022/12/26 06:25:24;;;;;;;;;;;2.70;99.90;;;;;;5106828;28;19912;-78
2022/12/26 06:27:49;;;;;;;;;;;2.80;99.90;;;;;;5094701;28;19923;-78
2022/12/26 06:30:15;;;;;;;;;;;2.80;99.90;;;;;;5094768;28;20264;-77
2022/12/26 06:32:41;;;;;;;;;;;2.80;99.90;;;;;;5093622;28;19931;-78
2022/12/26 06:35:06;;;;;;;;;;;2.80;99.90;;;;;;5094440;28;19918;-78
2022/12/26 06:37:32;;;;;;;;;;;2.80;99.90;;;;;;5093211;28;19953;-78
2022/12/26 06:39:58;;;;;;;;;;;2.80;99.90;;;;;;5093712;28;20490;-77
2022/12/26 06:42:24;;;;;;;;;;;2.80;99.90;;;;;;5094050;28;19980;-77
2022/12/26 06:44:49;;;;;;;;;;;2.80;99.90;;;;;;5093330;28;20671;-77
2022/12/26 06:47:15;;;;;;;;;;;2.90;99.90;;;;;;5093353;28;20042;-77
2022/12/26 06:49:40;;;;;;;;;;;2.90;99.90;;;;;;5093101;28;19912;-80
2022/12/26 06:52:07;;;;;;;;;;;2.80;99.90;;;;;;5093467;28;20441;-77
2022/12/26 06:54:33;;;;;;;;;;;2.90;99.90;;;;;;5092820;28;19955;-78
2022/12/26 06:56:59;;;;;;;;;;;2.90;99.90;;;;;;5093922;28;19985;-78
2022/12/26 06:59:25;;;;;;;;;;;3.00;99.90;;;;;;5093701;28;20388;-77
2022/12/26 07:01:50;;;;;;;;;;;3.00;99.90;;;;;;5092315;28;19904;-77
2022/12/26 07:04:16;;;;;;;;;;;3.10;99.90;;;;;;5093311;28;19912;-77
2022/12/26 07:06:41;;;;;;;;;;;3.00;99.90;;;;;;5093071;28;20372;-78
2022/12/26 07:09:15;;;;;;;;;;;3.10;99.90;;;;;;5093405;28;19908;-77
2022/12/26 07:11:42;;;;;;;;;;;3.00;99.90;;;;;;5101758;28;19914;-78
2022/12/26 07:14:08;;;;;;;;;;;3.00;99.90;;;;;;5100968;28;20006;-78
2022/12/26 07:16:34;;;;;;;;;;;3.10;99.90;;;;;;5093449;28;19947;-78
2022/12/26 07:19:00;;;;;;;;;;;3.00;99.90;;;;;;5093195;28;19983;-77
2022/12/26 07:21:26;;;;;;;;;;;3.00;99.90;;;;;;5093823;28;20063;-78
2022/12/26 07:23:52;;;;;;;;;;;3.00;99.90;;;;;;5092832;28;20002;-77
2022/12/26 07:26:18;;;;;;;;;;;3.10;99.90;;;;;;5093389;28;20353;-77
2022/12/26 07:28:43;;;;;;;;;;;3.10;99.90;;;;;;5092841;28;19939;-77
2022/12/26 07:31:14;;;;;;;;;;;3.10;99.90;;;;;;5093185;28;19980;-79
2022/12/26 07:33:39;;;;;;;;;;;3.10;99.90;;;;;;5093666;28;19915;-77
2022/12/26 07:36:05;;;;;;;;;;;3.00;99.90;;;;;;5075823;28;19909;-77
2022/12/26 07:38:31;;;;;;;;;;;3.00;99.90;;;;;;5093620;28;20304;-78
2022/12/26 07:40:57;;;;;;;;;;;3.00;99.90;;;;;;5093423;28;19908;-77
2022/12/26 07:43:23;;;;;;;;;;;3.00;99.90;;;;;;5093766;28;20241;-77
2022/12/26 07:45:49;;;;;;;;;;;2.90;99.90;;;;;;5092662;28;20409;-78
2022/12/26 07:48:14;;;;;;;;;;;2.90;99.90;;;;;;5100501;28;20003;-77
2022/12/26 07:50:40;;;;;;;;;;;2.90;99.90;;;;;;5112647;28;19967;-79
2022/12/26 07:53:05;;;;;;;;;;;2.90;99.90;;;;;;5112460;28;19995;-77
2022/12/26 07:55:31;;;;;;;;;;;2.90;99.90;;;;;;5112782;28;20005;-77
2022/12/26 07:57:56;;;;;;;;;;;2.90;99.90;;;;;;5116900;28;19972;-76
2022/12/26 08:00:22;;;;;;;;;;;2.90;99.90;;;;;;5123248;28;20002;-77
2022/12/26 08:02:48;;;;;;;;;;;2.90;99.90;;;;;;5113067;28;19907;-77
2022/12/26 08:05:14;;;;;;;;;;;3.00;99.90;;;;;;5112785;28;19916;-77
2022/12/26 08:07:40;;;;;;;;;;;2.90;99.90;;;;;;5112266;28;19927;-78
2022/12/26 08:10:06;;;;;;;;;;;2.90;99.90;;;;;;5112941;28;19909;-77
2022/12/26 08:12:32;;;;;;;;;;;2.90;99.90;;;;;;5111929;28;19908;-77
2022/12/26 08:14:57;;;;;;;;;;;2.90;99.90;;;;;;5112377;28;20002;-77
2022/12/26 08:17:23;;;;;;;;;;;2.90;99.90;;;;;;5113084;28;19918;-77
2022/12/26 08:19:48;;;;;;;;;;;2.90;99.90;;;;;;5126268;27;19912;-78
2022/12/26 08:22:14;;;;;;;;;;;2.90;99.90;;;;;;5130030;28;19988;-77
2022/12/26 08:24:40;;;;;;;;;;;2.90;99.90;;;;;;5125276;27;19904;-84
2022/12/26 08:27:05;;;;;;;;;;;3.00;99.90;;;;;;5128812;27;19908;-83
2022/12/26 08:29:31;;;;;;;;;;;2.90;99.90;;;;;;5122627;28;19904;-77
2022/12/26 08:31:56;;;;;;;;;;;3.00;99.90;;;;;;5125893;27;19900;-79
2022/12/26 08:34:22;;;;;;;;;;;3.00;99.90;;;;;;5105801;28;19988;-77
2022/12/26 08:36:51;;;;;;;;;;;3.00;99.90;;;;;;5091617;28;19999;-77
2022/12/26 08:39:17;;;;;;;;;;;3.00;99.90;;;;;;5092333;28;19917;-77
2022/12/26 08:41:42;;;;;;;;;;;3.10;99.90;;;;;;5094207;28;20387;-77
2022/12/26 08:44:08;;;;;;;;;;;3.10;99.90;;;;;;5093765;28;20006;-77
2022/12/26 08:46:34;;;;;;;;;;;3.10;99.90;;;;;;5100085;28;20312;-77
2022/12/26 08:49:00;;;;;;;;;;;3.10;99.90;;;;;;5091169;28;20389;-77
2022/12/26 08:51:25;;;;;;;;;;;3.10;99.90;;;;;;5091908;28;20260;-78
2022/12/26 08:53:52;;;;;;;;;;;3.20;99.90;;;;;;5091259;28;20065;-77
2022/12/26 08:56:18;;;;;;;;;;;3.20;99.90;;;;;;5073410;28;19909;-77
2022/12/26 08:58:44;;;;;;;;;;;3.20;99.90;;;;;;5090877;28;19912;-78
2022/12/26 09:01:12;;;;;;;;;;;3.30;99.90;;;;;;5106178;28;20418;-78
2022/12/26 09:03:39;;;;;;;;;;;3.30;99.90;;;;;;5111908;28;19924;-83
2022/12/26 09:06:04;;;;;;;;;;;3.30;99.90;;;;;;5111987;28;19912;-78
2022/12/26 09:08:30;;;;;;;;;;;3.30;99.90;;;;;;5112107;28;19922;-77
2022/12/26 09:11:00;;;;;;;;;;;3.40;99.90;;;;;;5093122;28;19907;-76
2022/12/26 09:13:26;;;;;;;;;;;3.40;99.90;;;;;;5111858;28;19912;-77
2022/12/26 09:15:52;;;;;;;;;;;3.50;99.90;;;;;;5111320;28;19954;-77
2022/12/26 09:18:17;;;;;;;;;;;3.50;99.90;;;;;;5093652;28;20383;-77
2022/12/26 09:20:43;;;;;;;;;;;3.60;99.90;;;;;;5110999;28;19976;-77
2022/12/26 09:23:09;;;;;;;;;;;3.60;99.90;;;;;;5113680;28;20271;-77
2022/12/26 09:25:35;;;;;;;;;;;3.60;99.90;;;;;;5115993;28;20052;-76
2022/12/26 09:28:01;;;;;;;;;;;3.70;99.90;;;;;;5114995;28;20038;-77
2022/12/26 09:30:26;;;;;;;;;;;3.70;99.90;;;;;;5119130;28;20232;-77
2022/12/26 09:32:52;;;;;;;;;;;3.70;99.90;;;;;;5124417;28;20004;-77
2022/12/26 09:35:18;;;;;;;;;;;3.70;99.90;;;;;;5115588;28;19915;-77
2022/12/26 09:37:44;;;;;;;;;;;3.80;99.90;;;;;;5095441;28;20238;-78
2022/12/26 09:40:20;;;;;;;;;;;3.70;99.90;;;;;;5096402;28;19908;-78
2022/12/26 09:42:57;;;;;;;;;;;3.80;99.90;;;;;;5114869;28;19908;-78
2022/12/26 09:45:26;;;;;;;;;;;3.80;99.90;;;;;;5115536;28;19908;-78
2022/12/26 09:48:11;;;;;;;;;;;3.80;99.90;;;;;;5114649;28;19919;-79
2022/12/26 09:50:37;;;;;;;;;;;3.70;99.90;;;;;;5115240;28;19915;-78
2022/12/26 09:53:05;;;;;;;;;;;3.80;99.90;;;;;;5114970;28;19972;-78
2022/12/26 09:55:36;;;;;;;;;;;3.70;99.90;;;;;;5115224;28;19972;-77
2022/12/26 09:58:21;;;;;;;;;;;3.70;99.90;;;;;;5114755;28;19911;-78
2022/12/26 10:00:52;;;;;;;;;;;3.70;99.90;;;;;;5096782;28;19907;-78
2022/12/26 10:03:18;;;;;;;;;;;3.70;99.90;;;;;;5114845;28;19908;-78
2022/12/26 10:06:04;;;;;;;;;;;3.70;99.90;;;;;;5114435;28;19912;-84
2022/12/26 10:08:33;;;;;;;;;;;3.70;99.90;;;;;;5113828;28;20015;-78
2022/12/26 10:11:00;;;;;;;;;;;3.60;99.90;;;;;;5095977;28;20325;-77
2022/12/26 10:13:30;;;;;;;;;;;3.70;99.90;;;;;;5114571;28;19907;-76
2022/12/26 10:16:07;;;;;;;;;;;3.70;99.90;;;;;;5116006;28;19953;-78
2022/12/26 10:18:51;;;;;;;;;;;3.70;99.90;;;;;;5122401;28;19908;-78
2022/12/26 10:21:35;;;;;;;;;;;3.70;99.90;;;;;;5096193;28;19984;-78
2022/12/26 10:24:09;;;;;;;;;;;3.80;99.90;;;;;;5114326;28;19951;-78
2022/12/26 10:26:39;;;;;;;;;;;3.80;99.90;;;;;;5114290;28;19920;-78
2022/12/26 10:29:08;;;;;;;;;;;3.90;99.90;;;;;;5114218;28;20838;-78
2022/12/26 10:31:35;;;;;;;;;;;3.90;99.90;;;;;;5113994;28;20276;-78
2022/12/26 10:34:18;;;;;;;;;;;3.90;99.90;;;;;;5113088;28;19908;-78
2022/12/26 10:36:46;;;;;;;;;;;3.90;99.90;;;;;;5114183;28;19947;-83
2022/12/26 10:39:16;;;;;;;;;;;4.00;99.90;;;;;;5114795;28;19915;-77
2022/12/26 10:41:45;;;;;;;;;;;4.10;99.90;;;;;;5114371;28;19908;-78
2022/12/26 10:44:11;;;;;;;;;;;4.10;99.90;;;;;;5113816;28;20008;-78
2022/12/26 10:46:47;;;;;;;;;;;4.20;99.90;;;;;;5114197;28;19923;-78
2022/12/26 10:49:14;;;;;;;;;;;4.20;99.90;;;;;;5113807;28;19960;-78
2022/12/26 10:51:40;;;;;;;;;;;4.20;99.90;;;;;;5114014;28;20002;-78
2022/12/26 10:54:16;;;;;;;;;;;4.20;99.90;;;;;;5113146;28;20028;-78
2022/12/26 10:56:43;;;;;;;;;;;4.20;99.90;;;;;;5113466;28;19942;-78
2022/12/26 10:59:13;;;;;;;;;;;4.30;99.90;;;;;;5113584;28;19914;-78
2022/12/26 11:01:45;;;;;;;;;;;4.30;99.90;;;;;;5114077;28;20059;-78
2022/12/26 11:04:25;;;;;;;;;;;4.40;99.90;;;;;;5113658;28;20068;-76
2022/12/26 11:06:52;;;;;;;;;;;4.40;99.90;;;;;;5113029;28;20259;-77
2022/12/26 11:09:30;;;;;;;;;;;4.40;99.90;;;;;;5113292;28;19908;-79
2022/12/26 11:11:56;;;;;;;;;;;4.50;99.90;;;;;;5113236;28;20265;-77
2022/12/26 11:14:38;;;;;;;;;;;4.50;99.90;;;;;;5113467;28;19955;-77
2022/12/26 11:17:33;;;;;;;;;;;4.60;99.90;;;;;;5113076;28;19908;-76
2022/12/26 11:20:28;;;;;;;;;;;4.60;99.90;;;;;;5090846;28;19908;-77
2022/12/26 11:22:53;;;;;;;;;;;4.50;99.90;;;;;;5090658;28;19960;-77
2022/12/26 11:25:29;;;;;;;;;;;4.50;99.90;;;;;;5113702;28;19907;-77
2022/12/26 11:27:55;;;;;;;;;;;4.50;99.90;;;;;;5112595;28;20361;-77
2022/12/26 11:30:27;;;;;;;;;;;4.40;99.90;;;;;;5113701;28;19915;-77
2022/12/26 11:33:11;;;;;;;;;;;4.40;99.90;;;;;;5112798;28;20335;-78
2022/12/26 11:35:44;;;;;;;;;;;4.40;99.90;;;;;;5113054;28;19977;-78
2022/12/26 11:38:34;;;;;;;;;;;4.40;99.90;;;;;;5077372;28;20071;-78
2022/12/26 11:43:51;;;;;;;;;;;4.40;99.90;;;;;;5112717;28;19915;-80
2022/12/26 11:46:17;;;;;;;;;;;4.40;99.90;;;;;;5111767;28;19911;-77
2022/12/26 11:48:46;;;;;;;;;;;4.40;99.90;;;;;;5112875;28;19912;-78
2022/12/26 11:51:13;;;;;;;;;;;4.50;99.90;;;;;;5112496;28;20261;-78
2022/12/26 11:53:39;;;;;;;;;;;4.40;99.90;;;;;;5112779;28;20281;-78
2022/12/26 11:56:05;;;;;;;;;;;4.50;99.90;;;;;;5112690;28;19912;-78
2022/12/26 11:58:32;;;;;;;;;;;4.50;99.90;;;;;;5113074;28;19916;-77
2022/12/26 12:00:58;;;;;;;;;;;4.60;99.90;;;;;;5112073;28;19908;-77
2022/12/26 12:03:26;;;;;;;;;;;4.60;99.90;;;;;;5112716;28;19914;-78
2022/12/26 12:05:57;;;;;;;;;;;4.60;99.90;;;;;;5111900;28;19963;-84
2022/12/26 12:08:25;;;;;;;;;;;4.70;99.90;;;;;;5112579;28;19923;-78
2022/12/26 12:10:51;;;;;;;;;;;4.70;99.90;;;;;;5111851;28;19915;-84
2022/12/26 12:13:19;;;;;;;;;;;4.80;99.90;;;;;;5111625;28;19908;-77
2022/12/26 12:15:48;;;;;;;;;;;4.80;99.90;;;;;;5111817;28;19995;-78
2022/12/26 12:18:19;;;;;;;;;;;4.80;99.90;;;;;;5111774;28;19923;-78
2022/12/26 12:20:45;;;;;;;;;;;4.80;99.90;;;;;;5112335;28;19930;-78
2022/12/26 12:23:13;;;;;;;;;;;4.80;99.90;;;;;;5111499;28;20475;-78
2022/12/26 12:25:57;;;;;;;;;;;4.80;99.90;;;;;;5112181;28;19908;-78
2022/12/26 12:28:23;;;;;;;;;;;4.90;99.90;;;;;;5106273;28;19981;-78
2022/12/26 12:31:08;;;;;;;;;;;4.80;99.90;;;;;;5091462;28;20014;-77
2022/12/26 12:33:34;;;;;;;;;;;4.90;99.90;;;;;;5075579;28;19912;-78
2022/12/26 12:36:08;;;;;;;;;;;4.90;99.90;;;;;;5104187;28;19908;-78
2022/12/26 12:38:52;;;;;;;;;;;4.90;99.90;;;;;;5079351;28;19908;-77
2022/12/26 12:41:27;;;;;;;;;;;4.90;99.90;;;;;;5092052;28;20388;-78
2022/12/26 12:44:11;;;;;;;;;;;4.90;99.90;;;;;;5091698;28;20249;-82
2022/12/26 12:46:39;;;;;;;;;;;4.90;99.90;;;;;;5092212;28;19912;-78
2022/12/26 12:49:17;;;;;;;;;;;4.90;99.90;;;;;;5091709;28;20299;-78
2022/12/26 12:52:01;;;;;;;;;;;4.90;99.90;;;;;;5091384;28;20393;-78
2022/12/26 12:54:30;;;;;;;;;;;4.90;99.90;;;;;;5091116;28;20384;-78
2022/12/26 12:56:58;;;;;;;;;;;4.90;99.90;;;;;;5072730;28;19969;-84
2022/12/26 12:59:24;;;;;;;;;;;4.90;99.90;;;;;;5091209;28;19908;-78
2022/12/26 13:01:51;;;;;;;;;;;4.90;99.90;;;;;;5091342;28;19908;-78
2022/12/26 13:04:20;;;;;;;;;;;5.00;99.90;;;;;;5097169;28;19916;-77
2022/12/26 13:06:51;;;;;;;;;;;5.00;99.90;;;;;;5111383;28;19924;-77
2022/12/26 13:09:23;;;;;;;;;;;5.10;99.90;;;;;;5110743;28;20360;-78
2022/12/26 13:11:49;;;;;;;;;;;5.10;99.90;;;;;;5111720;28;19969;-78
2022/12/26 13:14:22;;;;;;;;;;;5.20;99.90;;;;;;5111435;28;19912;-77
2022/12/26 13:16:57;;;;;;;;;;;5.20;99.90;;;;;;5111681;28;19911;-77
2022/12/26 13:19:25;;;;;;;;;;;5.30;99.90;;;;;;5111559;28;19908;-77
2022/12/26 13:21:53;;;;;;;;;;;5.30;99.90;;;;;;5093049;28;20345;-77
2022/12/26 13:24:31;;;;;;;;;;;5.30;99.90;;;;;;5111357;28;20030;-78
2022/12/26 13:27:03;;;;;;;;;;;5.20;99.90;;;;;;5114575;28;19922;-85
2022/12/26 13:29:35;;;;;;;;;;;5.20;99.90;;;;;;5134653;28;19975;-77
2022/12/26 13:32:03;;;;;;;;;;;5.20;99.90;;;;;;5131050;28;19971;-80
2022/12/26 13:34:29;;;;;;;;;;;5.20;99.90;;;;;;5121836;28;19896;-77
2022/12/26 13:36:55;;;;;;;;;;;5.20;99.90;;;;;;5125986;28;19967;-79
2022/12/26 13:39:24;;;;;;;;;;;5.20;99.90;;;;;;5130778;28;19907;-78
2022/12/26 13:44:52;;;;;;;;;;;5.20;99.90;;;;;;5063688;28;19952;-78
2022/12/26 13:47:35;;;;;;;;;;;5.20;99.90;;;;;;5095216;28;20106;-77
2022/12/26 13:50:19;;;;;;;;;;;5.20;99.90;;;;;;5115313;28;19926;-78
2022/12/26 13:52:46;;;;;;;;;;;5.20;99.90;;;;;;5113926;28;20268;-77
2022/12/26 13:55:11;;;;;;;;;;;5.30;99.90;;;;;;5113527;28;19908;-77
2022/12/26 13:57:39;;;;;;;;;;;5.40;99.90;;;;;;5112711;28;19968;-78
2022/12/26 14:00:05;;;;;;;;;;;5.50;99.90;;;;;;5111216;28;20246;-77
2022/12/26 14:02:49;;;;;;;;;;;5.50;99.90;;;;;;5112565;28;19919;-78
2022/12/26 14:05:17;;;;;;;;;;;5.60;99.90;;;;;;5111345;28;19928;-77
2022/12/26 14:07:43;;;;;;;;;;;5.60;99.90;;;;;;5111608;28;20410;-77
2022/12/26 14:10:17;;;;;;;;;;;5.50;99.90;;;;;;5112600;28;19997;-77
2022/12/26 14:12:45;;;;;;;;;;;5.50;99.90;;;;;;5115745;28;19907;-77
2022/12/26 14:15:17;;;;;;;;;;;5.50;99.90;;;;;;5083101;28;19909;-77
2022/12/26 14:17:55;;;;;;;;;;;5.40;99.90;;;;;;5102950;28;19936;-78
2022/12/26 14:20:35;;;;;;;;;;;5.40;99.90;;;;;;5102841;28;19922;-79
2022/12/26 14:23:11;;;;;;;;;;;5.40;99.90;;;;;;5101755;28;19939;-79
2022/12/26 14:25:55;;;;;;;;;;;5.50;99.90;;;;;;5084455;28;19964;-78
2022/12/26 14:28:39;;;;;;;;;;;5.50;99.90;;;;;;5113266;28;20353;-77
2022/12/26 14:31:23;;;;;;;;;;;5.50;99.90;;;;;;5114794;28;20367;-78
2022/12/26 14:33:49;;;;;;;;;;;5.50;99.90;;;;;;5115027;28;20007;-77
2022/12/26 14:36:33;;;;;;;;;;;5.60;99.90;;;;;;5114193;28;19976;-78
2022/12/26 14:39:09;;;;;;;;;;;5.60;99.90;;;;;;5115008;28;19947;-80
2022/12/26 14:44:37;;;;;;;;;;;5.70;99.90;;;;;;5114500;28;19986;-78
2022/12/26 14:47:04;;;;;;;;;;;5.70;99.90;;;;;;5114176;28;19923;-79
2022/12/26 14:49:29;;;;;;;;;;;5.80;99.90;;;;;;5107777;28;19946;-78
2022/12/26 14:52:15;;;;;;;;;;;5.80;99.90;;;;;;5103088;28;19927;-79
2022/12/26 14:54:45;;;;;;;;;;;5.80;99.90;;;;;;5103932;28;20045;-77
2022/12/26 14:57:29;;;;;;;;;;;5.80;99.90;;;;;;5098458;28;19908;-78
2022/12/26 15:00:13;;;;;;;;;;;5.70;99.90;;;;;;5093663;28;19954;-78
2022/12/26 15:02:41;;;;;;;;;;;5.80;99.90;;;;;;5093229;28;20277;-78
2022/12/26 15:05:09;;;;;;;;;;;5.70;99.90;;;;;;5092715;28;20003;-78
2022/12/26 15:07:44;;;;;;;;;;;5.70;99.90;;;;;;5093345;28;19931;-78
2022/12/26 15:10:19;;;;;;;;;;;5.70;99.90;;;;;;5092769;28;20218;-78
2022/12/26 15:12:50;;;;;;;;;;;5.70;99.90;;;;;;5093266;28;19912;-78
2022/12/26 15:15:31;;;;;;;;;;;5.60;99.90;;;;;;5093031;28;20003;-78
2022/12/26 15:18:15;;;;;;;;;;;5.60;99.90;;;;;;5093198;28;19908;-78
2022/12/26 15:20:41;;;;;;;;;;;5.50;99.90;;;;;;5093150;28;19908;-78
2022/12/26 15:23:06;;;;;;;;;;;5.50;99.90;;;;;;5092842;28;19908;-78
2022/12/26 15:25:43;;;;;;;;;;;5.40;99.90;;;;;;5093422;28;20000;-78
2022/12/26 15:28:29;;;;;;;;;;;5.40;99.90;;;;;;5092678;28;20024;-78
2022/12/26 15:30:54;;;;;;;;;;;5.30;99.90;;;;;;5092511;28;19957;-77
2022/12/26 15:33:30;;;;;;;;;;;5.30;99.90;;;;;;5092779;28;19916;-79
2022/12/26 15:36:16;;;;;;;;;;;5.20;99.90;;;;;;5092704;28;19908;-78
2022/12/26 15:38:46;;;;;;;;;;;5.20;99.90;;;;;;5081653;28;19908;-78
2022/12/26 15:41:14;;;;;;;;;;;5.30;99.90;;;;;;5092316;28;19915;-78
2022/12/26 15:43:43;;;;;;;;;;;5.20;99.90;;;;;;5092779;28;20379;-78
2022/12/26 15:46:27;;;;;;;;;;;5.20;99.90;;;;;;5091787;28;19912;-78
2022/12/26 15:48:59;;;;;;;;;;;5.10;99.90;;;;;;5092373;28;19927;-78
2022/12/26 15:51:43;;;;;;;;;;;5.10;99.90;;;;;;5091934;28;19916;-78
2022/12/26 15:54:21;;;;;;;;;;;5.10;99.90;;;;;;5073698;28;20310;-78
2022/12/26 15:57:04;;;;;;;;;;;5.00;99.90;;;;;;5092381;28;19908;-77
2022/12/26 15:59:37;;;;;;;;;;;5.00;99.90;;;;;;5094431;28;19941;-78
2022/12/26 16:02:10;;;;;;;;;;;5.00;99.90;;;;;;5098114;28;20342;-78
2022/12/26 16:04:42;;;;;;;;;;;4.90;99.90;;;;;;5083065;28;19908;-78
2022/12/26 16:07:25;;;;;;;;;;;4.90;99.90;;;;;;5097028;28;20250;-82
2022/12/26 16:09:55;;;;;;;;;;;4.90;99.90;;;;;;5100687;28;19927;-79
2022/12/26 16:12:25;;;;;;;;;;;4.80;99.90;;;;;;5104797;28;20345;-78
2022/12/26 16:15:00;;;;;;;;;;;4.70;99.90;;;;;;5095793;28;20293;-77
2022/12/26 16:17:26;;;;;;;;;;;4.70;99.90;;;;;;5108629;28;20367;-78
2022/12/26 16:19:53;;;;;;;;;;;4.70;99.90;;;;;;5092921;28;19919;-79
2022/12/26 16:22:42;;;;;;;;;;;4.60;99.90;;;;;;5101688;28;20035;-78
2022/12/26 16:25:13;;;;;;;;;;;4.60;99.90;;;;;;5100651;28;19915;-82
2022/12/26 16:27:39;;;;;;;;;;;4.50;99.90;;;;;;5100990;28;20036;-78
2022/12/26 16:30:06;;;;;;;;;;;4.50;99.90;;;;;;5101984;28;19916;-78
2022/12/26 16:32:36;;;;;;;;;;;4.50;99.90;;;;;;5094183;28;19965;-78
2022/12/26 16:35:02;;;;;;;;;;;4.50;99.90;;;;;;5090798;28;19908;-79
2022/12/26 16:37:28;;;;;;;;;;;4.50;99.90;;;;;;5091539;28;19912;-78
2022/12/26 16:40:14;;;;;;;;;;;4.50;99.90;;;;;;5100503;28;19910;-78
2022/12/26 16:42:44;;;;;;;;;;;4.40;99.90;;;;;;5097143;28;20041;-78
2022/12/26 16:45:17;;;;;;;;;;;4.40;99.90;;;;;;5084185;28;19991;-78
2022/12/26 16:47:43;;;;;;;;;;;4.40;99.90;;;;;;5096125;28;20022;-79
2022/12/26 16:50:13;;;;;;;;;;;4.40;99.90;;;;;;5094260;28;19915;-83
2022/12/26 16:52:39;;;;;;;;;;;4.40;99.90;;;;;;5091467;28;19953;-78
2022/12/26 16:55:26;;;;;;;;;;;4.40;99.90;;;;;;5104337;28;19998;-77
2022/12/26 16:57:55;;;;;;;;;;;4.50;99.90;;;;;;5091317;28;19916;-78